createdAt,value
2019-01-18T00:05:52.048Z,45.40
2019-01-18T00:15:57.432Z,45.50
2019-01-18T00:26:02.870Z,45.60
2019-01-18T00:36:08.561Z,45.70
2019-01-18T00:46:14.140Z,45.80
2019-01-18T00:56:19.556Z,45.90
2019-01-18T01:06:24.951Z,46.50
2019-01-18T01:16:31.092Z,46.00
2019-01-18T01:26:37.792Z,45.90
2019-01-18T01:36:45.175Z,45.70
2019-01-18T01:46:50.578Z,45.60
2019-01-18T01:56:56.636Z,45.70
2019-01-18T02:07:01.989Z,45.70
2019-01-18T02:17:07.877Z,45.80
2019-01-18T02:27:13.377Z,45.70
2019-01-18T02:37:18.897Z,45.70
2019-01-18T02:47:24.283Z,45.70
2019-01-18T02:57:29.692Z,45.60
2019-01-18T03:07:35.050Z,46.20
2019-01-18T03:17:42.709Z,46.20
2019-01-18T03:27:48.239Z,45.60
2019-01-18T03:37:53.866Z,45.60
2019-01-18T03:47:59.374Z,45.80
2019-01-18T03:58:04.795Z,45.80
2019-01-18T04:08:10.267Z,45.90
2019-01-18T04:18:18.216Z,45.90
2019-01-18T04:28:26.976Z,45.90
2019-01-18T04:38:32.494Z,45.90
2019-01-18T04:48:37.888Z,45.90
2019-01-18T04:58:43.305Z,46.00
2019-01-18T05:08:48.800Z,46.10
2019-01-18T05:18:54.862Z,46.10
2019-01-18T05:29:00.449Z,45.90
2019-01-18T05:39:06.849Z,46.00
2019-01-18T05:49:12.378Z,46.10
2019-01-18T05:59:17.902Z,46.10
2019-01-18T06:09:27.169Z,46.00
2019-01-18T06:19:32.601Z,45.90
2019-01-18T06:29:39.745Z,45.90
2019-01-18T06:39:45.547Z,46.00
2019-01-18T06:49:50.966Z,46.10
2019-01-18T06:59:56.363Z,46.20
2019-01-18T07:10:01.750Z,46.20
2019-01-18T07:20:10.899Z,46.10
2019-01-18T07:30:23.681Z,46.00
2019-01-18T07:40:29.067Z,46.00
2019-01-18T07:50:37.502Z,46.00
2019-01-18T08:00:43.119Z,45.90
2019-01-18T08:10:48.851Z,46.00
2019-01-18T08:20:54.458Z,46.10
2019-01-18T08:31:02.396Z,46.00
2019-01-18T08:41:08.000Z,46.00
2019-01-18T08:51:14.467Z,45.90
2019-01-18T09:01:22.081Z,46.00
2019-01-18T09:11:31.843Z,45.90
2019-01-18T09:21:37.356Z,45.70
2019-01-18T09:31:42.989Z,45.60
2019-01-18T09:41:48.438Z,45.60
2019-01-18T09:51:53.949Z,45.80
2019-01-18T10:01:59.343Z,46.00
2019-01-18T10:12:05.298Z,46.30
2019-01-18T10:22:11.043Z,38.70
2019-01-18T10:32:16.493Z,37.80
2019-01-18T10:42:21.901Z,39.80
2019-01-18T10:52:27.526Z,40.90
2019-01-18T11:02:33.001Z,41.60
2019-01-18T11:12:38.573Z,42.10
2019-01-18T11:22:44.121Z,42.40
2019-01-18T11:32:49.488Z,42.70
2019-01-18T11:42:54.963Z,42.90
2019-01-18T11:53:00.399Z,43.10
2019-01-18T12:03:05.826Z,43.20
2019-01-18T12:13:11.312Z,43.30
2019-01-18T12:23:16.901Z,43.60
2019-01-18T12:33:22.340Z,43.80
2019-01-18T12:43:27.736Z,43.80
2019-01-18T12:53:33.116Z,43.90
2019-01-18T13:03:38.534Z,44.00
2019-01-18T13:13:44.087Z,44.50
2019-01-18T13:23:49.574Z,44.00
2019-01-18T13:33:55.941Z,44.10
2019-01-18T13:44:01.315Z,44.00
2019-01-18T13:54:07.045Z,44.70
2019-01-18T14:04:12.504Z,44.10
2019-01-18T14:14:19.035Z,44.00
2019-01-18T14:24:24.406Z,44.10
2019-01-18T14:34:29.910Z,44.10
2019-01-18T14:44:36.214Z,44.10
2019-01-18T14:54:41.613Z,43.80
2019-01-18T15:04:47.864Z,43.80
2019-01-18T15:14:53.311Z,44.00
2019-01-18T15:24:58.791Z,44.10
2019-01-18T15:35:04.286Z,44.10
2019-01-18T15:45:10.724Z,44.10
2019-01-18T15:55:16.942Z,44.10
2019-01-18T16:05:22.372Z,44.10
2019-01-18T16:15:43.082Z,44.20
2019-01-18T16:25:48.729Z,44.20
2019-01-18T16:35:54.133Z,44.20
2019-01-18T16:45:59.869Z,44.20
2019-01-18T16:56:05.507Z,44.30
2019-01-18T17:06:10.905Z,44.20
2019-01-18T17:16:16.327Z,43.90
2019-01-18T17:26:22.487Z,42.80
2019-01-18T17:37:20.250Z,43.50
2019-01-18T17:48:20.761Z,42.90
2019-01-18T17:59:21.855Z,43.30
2019-01-18T18:10:01.286Z,43.50
2019-01-18T18:21:27.153Z,43.40
2019-01-18T18:32:23.115Z,43.50
2019-01-18T18:43:24.143Z,43.60
2019-01-18T18:54:16.761Z,43.70
2019-01-18T19:05:08.070Z,43.90
2019-01-18T19:16:28.076Z,44.00
2019-01-18T19:27:15.189Z,44.10
2019-01-18T19:38:41.157Z,44.10
2019-01-18T19:49:59.252Z,44.20
2019-01-18T20:00:53.668Z,44.20
2019-01-18T20:11:49.441Z,42.20
2019-01-18T20:22:44.729Z,42.00
2019-01-18T20:33:52.384Z,41.90
2019-01-18T20:45:12.058Z,41.90
2019-01-18T20:55:53.280Z,42.10
2019-01-18T21:07:00.494Z,42.40
2019-01-18T21:17:45.950Z,42.60
2019-01-18T21:28:43.890Z,42.70
2019-01-18T21:39:29.475Z,42.80
2019-01-18T21:50:31.333Z,42.50
2019-01-18T22:01:26.382Z,43.10
2019-01-18T22:12:22.330Z,42.70
2019-01-18T22:23:17.790Z,43.10
2019-01-18T22:33:44.677Z,42.80
2019-01-18T22:44:28.485Z,42.80
2019-01-18T22:55:03.696Z,42.80
2019-01-18T23:06:20.970Z,42.80
2019-01-18T23:17:40.742Z,42.80
2019-01-18T23:28:37.014Z,42.80
2019-01-18T23:39:55.811Z,43.00
2019-01-18T23:51:04.199Z,42.90
